Roscoe, MT

3:45 AM MDT on August 27, 2014 (GMT -0600)
Willow Creek Road | Change Station
CLOSE
Current Station
Personal Weather Station
Location: Red Lodge, MT
Elevation: 5102 ft
Nearby Weather Stations

Elev 5102 ft 45.27 °N, 109.26 °W | Updated 12 minutes ago

Clear
Clear
51.3 °F
Feels Like 51.3 °F
N
4.2
Wind Variable Wind from ESE

Today
High -- | Low -- °F
--% Chance of Precip.
Yesterday
High -- | Low -- °F
Precip. -- in
6:33 AM 8:04 PM
Waxing Crescent, 3% visible
Pressure 30.03 in
Visibility 10.0 miles
Clouds Clear
Dew Point 45 °F
Humidity 78%
Rainfall 0.00 in
Snow Depth 1 in
UV 0 out of 12
Pollen 7.90 out of 12
Air Quality Not available.
Flu Activity Not available.
METAR KBIL 270853Z 20004KT 10SM CLR 16/09 A3010 RMK AO2 SLP169 T01560094 58002

More Conditions Fewer Conditions

Pressure 30.03 in
Visibility 10.0 miles
Clouds Clear
Dew Point 45 °F
Humidity 78%
Rainfall 0.00 in
Snow Depth 1 in
UV 0 out of 12
Pollen 7.90 out of 12
Air Quality Not available.
Flu Activity Not available.
METAR KBIL 270853Z 20004KT 10SM CLR 16/09 A3010 RMK AO2 SLP169 T01560094 58002

More Conditions Fewer Conditions

10-Day Weather Forecast

Almanac

Astronomy

Aug. 27, 2014 Rise Set
Actual Time 6:33 AM MDT 8:04 PM MDT
Civil Twilight 6:02 AM MDT 8:35 PM MDT
Nautical Twilight 5:24 AM MDT 9:12 PM MDT
Astronomical Twilight 4:44 AM MDT 9:52 PM MDT
Moon 8:40 AM MDT 8:49 PM MDT
Length of Visible Light 14h 32m
Length of Day
13h 30m
Tomorrow will be 3m 1s shorter.
Waxing Crescent, 3% of the Moon is Illuminated
Today
Waxing Crescent
Sep 2
First Quarter
Sep 8
Full
Sep 15
Last Quarter
Sep 24
New

Today's Extremes

State Highs State Lows

Community

WunderPhotos

Upload Photos

1,747,661 photos uploaded!

Nearby

Snow Depth

Station Depth Elevation
Cole Creek 1 in 7850 ft
White Mill 2 in 8700 ft
Placer Basin 0 in 8830 ft
Fisher Creek 0 in 9100 ft
Northeast Entrance 0 in 7350 ft

Earthquake Activity

City Distance Mag. Time & Date
No recent earthquake activity has been reported nearby.
Minimum magnitude displayed is 2.5.

Coastal Water Temperatures

Place Temperature
No Stations Reporting

Nearby Weather Stations